sensor_id;sensor_type;location;lat;lon;timestamp;P1;durP1;ratioP1;P2;durP2;ratioP2
13443;SDS011;6794;59.218;18.218;2023-07-02T00:00:23;4.20;;;3.00;;
13443;SDS011;6794;59.218;18.218;2023-07-02T00:02:49;2.60;;;2.40;;
13443;SDS011;6794;59.218;18.218;2023-07-02T00:05:15;2.63;;;2.30;;
13443;SDS011;6794;59.218;18.218;2023-07-02T00:07:42;2.60;;;2.40;;
13443;SDS011;6794;59.218;18.218;2023-07-02T00:10:08;2.73;;;2.53;;
13443;SDS011;6794;59.218;18.218;2023-07-02T00:12:35;2.53;;;2.33;;
13443;SDS011;6794;59.218;18.218;2023-07-02T00:15:02;3.07;;;2.57;;
13443;SDS011;6794;59.218;18.218;2023-07-02T00:17:28;3.43;;;2.90;;
13443;SDS011;6794;59.218;18.218;2023-07-02T00:19:54;2.60;;;2.40;;
13443;SDS011;6794;59.218;18.218;2023-07-02T00:22:20;2.50;;;2.30;;
13443;SDS011;6794;59.218;18.218;2023-07-02T00:24:46;2.63;;;2.40;;
13443;SDS011;6794;59.218;18.218;2023-07-02T00:27:12;5.00;;;2.73;;
13443;SDS011;6794;59.218;18.218;2023-07-02T00:29:38;2.63;;;2.43;;
13443;SDS011;6794;59.218;18.218;2023-07-02T00:32:05;2.53;;;2.33;;
13443;SDS011;6794;59.218;18.218;2023-07-02T00:34:31;2.80;;;2.50;;
13443;SDS011;6794;59.218;18.218;2023-07-02T00:36:57;3.00;;;2.80;;
13443;SDS011;6794;59.218;18.218;2023-07-02T00:39:23;2.87;;;2.43;;
13443;SDS011;6794;59.218;18.218;2023-07-02T00:41:49;3.87;;;3.00;;
13443;SDS011;6794;59.218;18.218;2023-07-02T00:44:15;3.27;;;2.97;;
13443;SDS011;6794;59.218;18.218;2023-07-02T00:46:42;3.37;;;2.90;;
13443;SDS011;6794;59.218;18.218;2023-07-02T00:49:08;2.90;;;2.70;;
13443;SDS011;6794;59.218;18.218;2023-07-02T00:51:35;2.97;;;2.67;;
13443;SDS011;6794;59.218;18.218;2023-07-02T00:54:02;3.10;;;2.80;;
13443;SDS011;6794;59.218;18.218;2023-07-02T00:56:28;2.87;;;2.67;;
13443;SDS011;6794;59.218;18.218;2023-07-02T00:58:54;3.10;;;2.73;;
13443;SDS011;6794;59.218;18.218;2023-07-02T01:01:24;4.80;;;3.40;;
13443;SDS011;6794;59.218;18.218;2023-07-02T01:04:00;3.63;;;3.33;;
13443;SDS011;6794;59.218;18.218;2023-07-02T01:06:27;3.93;;;3.53;;
13443;SDS011;6794;59.218;18.218;2023-07-02T01:09:00;3.60;;;3.30;;
13443;SDS011;6794;59.218;18.218;2023-07-02T01:11:28;3.73;;;3.43;;
13443;SDS011;6794;59.218;18.218;2023-07-02T01:13:58;3.87;;;3.07;;
13443;SDS011;6794;59.218;18.218;2023-07-02T01:16:25;3.43;;;3.13;;
13443;SDS011;6794;59.218;18.218;2023-07-02T01:18:51;3.57;;;3.13;;
13443;SDS011;6794;59.218;18.218;2023-07-02T01:21:19;3.23;;;2.93;;
13443;SDS011;6794;59.218;18.218;2023-07-02T01:23:46;6.27;;;2.77;;
13443;SDS011;6794;59.218;18.218;2023-07-02T01:26:12;3.10;;;2.90;;
13443;SDS011;6794;59.218;18.218;2023-07-02T01:28:39;3.33;;;2.77;;
13443;SDS011;6794;59.218;18.218;2023-07-02T01:31:05;3.10;;;2.90;;
13443;SDS011;6794;59.218;18.218;2023-07-02T01:33:31;3.23;;;2.90;;
13443;SDS011;6794;59.218;18.218;2023-07-02T01:35:57;3.40;;;2.90;;
13443;SDS011;6794;59.218;18.218;2023-07-02T01:38:23;3.90;;;3.07;;
13443;SDS011;6794;59.218;18.218;2023-07-02T01:40:49;3.10;;;2.80;;
13443;SDS011;6794;59.218;18.218;2023-07-02T01:43:15;3.60;;;3.30;;
13443;SDS011;6794;59.218;18.218;2023-07-02T01:45:41;3.40;;;3.10;;
13443;SDS011;6794;59.218;18.218;2023-07-02T01:48:08;4.40;;;3.57;;
13443;SDS011;6794;59.218;18.218;2023-07-02T01:50:34;3.40;;;3.10;;
13443;SDS011;6794;59.218;18.218;2023-07-02T01:53:00;3.87;;;3.57;;
13443;SDS011;6794;59.218;18.218;2023-07-02T01:55:26;4.77;;;4.37;;
13443;SDS011;6794;59.218;18.218;2023-07-02T01:57:52;5.20;;;4.80;;
13443;SDS011;6794;59.218;18.218;2023-07-02T02:00:18;3.70;;;3.27;;
13443;SDS011;6794;59.218;18.218;2023-07-02T02:02:44;3.27;;;3.07;;
13443;SDS011;6794;59.218;18.218;2023-07-02T02:05:10;3.97;;;3.00;;
13443;SDS011;6794;59.218;18.218;2023-07-02T02:07:36;3.60;;;3.30;;
13443;SDS011;6794;59.218;18.218;2023-07-02T02:10:03;3.27;;;2.97;;
13443;SDS011;6794;59.218;18.218;2023-07-02T02:12:29;3.57;;;3.27;;
13443;SDS011;6794;59.218;18.218;2023-07-02T02:14:56;3.60;;;3.30;;
13443;SDS011;6794;59.218;18.218;2023-07-02T02:17:22;4.03;;;3.10;;
13443;SDS011;6794;59.218;18.218;2023-07-02T02:19:51;3.50;;;3.17;;
13443;SDS011;6794;59.218;18.218;2023-07-02T02:22:17;3.40;;;3.10;;
13443;SDS011;6794;59.218;18.218;2023-07-02T02:24:43;3.43;;;3.13;;
13443;SDS011;6794;59.218;18.218;2023-07-02T02:27:09;3.30;;;3.10;;
13443;SDS011;6794;59.218;18.218;2023-07-02T02:29:35;4.47;;;3.40;;
13443;SDS011;6794;59.218;18.218;2023-07-02T02:32:01;3.50;;;3.20;;
13443;SDS011;6794;59.218;18.218;2023-07-02T02:34:27;3.87;;;3.50;;
13443;SDS011;6794;59.218;18.218;2023-07-02T02:36:54;4.97;;;4.07;;
13443;SDS011;6794;59.218;18.218;2023-07-02T02:39:21;3.43;;;3.20;;
13443;SDS011;6794;59.218;18.218;2023-07-02T02:41:47;3.80;;;3.50;;
13443;SDS011;6794;59.218;18.218;2023-07-02T02:44:13;3.60;;;3.30;;
13443;SDS011;6794;59.218;18.218;2023-07-02T02:46:39;3.50;;;3.20;;
13443;SDS011;6794;59.218;18.218;2023-07-02T02:49:05;3.87;;;3.57;;
13443;SDS011;6794;59.218;18.218;2023-07-02T02:51:31;3.77;;;3.47;;
13443;SDS011;6794;59.218;18.218;2023-07-02T02:53:57;3.67;;;3.37;;
13443;SDS011;6794;59.218;18.218;2023-07-02T02:56:23;3.87;;;3.47;;
13443;SDS011;6794;59.218;18.218;2023-07-02T02:58:49;3.60;;;3.30;;
13443;SDS011;6794;59.218;18.218;2023-07-02T03:01:15;4.23;;;3.30;;
13443;SDS011;6794;59.218;18.218;2023-07-02T03:03:41;4.13;;;3.13;;
13443;SDS011;6794;59.218;18.218;2023-07-02T03:06:19;3.70;;;3.10;;
13443;SDS011;6794;59.218;18.218;2023-07-02T03:08:45;3.27;;;2.90;;
13443;SDS011;6794;59.218;18.218;2023-07-02T03:11:11;3.53;;;3.23;;
13443;SDS011;6794;59.218;18.218;2023-07-02T03:13:37;3.10;;;2.90;;
13443;SDS011;6794;59.218;18.218;2023-07-02T03:16:03;3.27;;;2.90;;
13443;SDS011;6794;59.218;18.218;2023-07-02T03:18:29;3.07;;;2.83;;
13443;SDS011;6794;59.218;18.218;2023-07-02T03:20:55;3.17;;;2.90;;
13443;SDS011;6794;59.218;18.218;2023-07-02T03:23:21;3.03;;;2.83;;
13443;SDS011;6794;59.218;18.218;2023-07-02T03:25:47;3.20;;;3.00;;
13443;SDS011;6794;59.218;18.218;2023-07-02T03:28:13;3.10;;;2.80;;
13443;SDS011;6794;59.218;18.218;2023-07-02T03:30:39;3.63;;;2.93;;
13443;SDS011;6794;59.218;18.218;2023-07-02T03:33:05;3.53;;;2.87;;
13443;SDS011;6794;59.218;18.218;2023-07-02T03:35:31;3.30;;;3.00;;
13443;SDS011;6794;59.218;18.218;2023-07-02T03:37:57;3.10;;;2.80;;
13443;SDS011;6794;59.218;18.218;2023-07-02T03:40:23;3.07;;;2.87;;
13443;SDS011;6794;59.218;18.218;2023-07-02T03:42:49;3.50;;;3.20;;
13443;SDS011;6794;59.218;18.218;2023-07-02T03:45:15;3.43;;;3.20;;
13443;SDS011;6794;59.218;18.218;2023-07-02T03:47:41;3.43;;;3.13;;
13443;SDS011;6794;59.218;18.218;2023-07-02T03:50:09;3.63;;;2.70;;
13443;SDS011;6794;59.218;18.218;2023-07-02T03:52:35;3.03;;;2.80;;
13443;SDS011;6794;59.218;18.218;2023-07-02T03:55:01;3.00;;;2.80;;
13443;SDS011;6794;59.218;18.218;2023-07-02T03:57:27;4.03;;;3.10;;
13443;SDS011;6794;59.218;18.218;2023-07-02T03:59:53;3.83;;;3.00;;
13443;SDS011;6794;59.218;18.218;2023-07-02T04:02:19;3.37;;;2.83;;
13443;SDS011;6794;59.218;18.218;2023-07-02T04:04:45;2.90;;;2.70;;
13443;SDS011;6794;59.218;18.218;2023-07-02T04:07:11;3.17;;;2.90;;
13443;SDS011;6794;59.218;18.218;2023-07-02T04:09:37;2.90;;;2.70;;
13443;SDS011;6794;59.218;18.218;2023-07-02T04:12:03;3.20;;;2.90;;
13443;SDS011;6794;59.218;18.218;2023-07-02T04:14:30;2.80;;;2.60;;
13443;SDS011;6794;59.218;18.218;2023-07-02T04:16:56;3.40;;;3.10;;
13443;SDS011;6794;59.218;18.218;2023-07-02T04:19:22;3.73;;;2.97;;
13443;SDS011;6794;59.218;18.218;2023-07-02T04:21:48;3.10;;;2.80;;
13443;SDS011;6794;59.218;18.218;2023-07-02T04:24:14;3.27;;;2.97;;
13443;SDS011;6794;59.218;18.218;2023-07-02T04:26:40;2.93;;;2.63;;
13443;SDS011;6794;59.218;18.218;2023-07-02T04:29:08;3.00;;;2.70;;
13443;SDS011;6794;59.218;18.218;2023-07-02T04:31:35;3.53;;;2.87;;
13443;SDS011;6794;59.218;18.218;2023-07-02T04:34:01;3.00;;;2.80;;
13443;SDS011;6794;59.218;18.218;2023-07-02T04:36:27;3.10;;;2.80;;
13443;SDS011;6794;59.218;18.218;2023-07-02T04:38:53;3.73;;;2.93;;
13443;SDS011;6794;59.218;18.218;2023-07-02T04:41:19;3.93;;;2.90;;
13443;SDS011;6794;59.218;18.218;2023-07-02T04:43:45;3.37;;;2.50;;
13443;SDS011;6794;59.218;18.218;2023-07-02T04:46:12;3.43;;;3.03;;
13443;SDS011;6794;59.218;18.218;2023-07-02T04:48:38;3.20;;;2.90;;
13443;SDS011;6794;59.218;18.218;2023-07-02T04:51:04;3.20;;;2.90;;
13443;SDS011;6794;59.218;18.218;2023-07-02T04:53:30;2.93;;;2.57;;
13443;SDS011;6794;59.218;18.218;2023-07-02T04:55:56;3.20;;;2.90;;
13443;SDS011;6794;59.218;18.218;2023-07-02T04:58:23;3.20;;;3.00;;
13443;SDS011;6794;59.218;18.218;2023-07-02T05:00:49;4.33;;;3.20;;
13443;SDS011;6794;59.218;18.218;2023-07-02T05:03:15;3.40;;;3.10;;
13443;SDS011;6794;59.218;18.218;2023-07-02T05:05:41;3.47;;;2.80;;
13443;SDS011;6794;59.218;18.218;2023-07-02T05:08:07;3.63;;;3.33;;
13443;SDS011;6794;59.218;18.218;2023-07-02T05:10:33;4.17;;;3.67;;
13443;SDS011;6794;59.218;18.218;2023-07-02T05:12:59;4.63;;;3.60;;
13443;SDS011;6794;59.218;18.218;2023-07-02T05:15:25;3.80;;;3.40;;
13443;SDS011;6794;59.218;18.218;2023-07-02T05:17:51;5.83;;;3.37;;
13443;SDS011;6794;59.218;18.218;2023-07-02T05:20:17;3.40;;;3.10;;
13443;SDS011;6794;59.218;18.218;2023-07-02T05:22:43;3.13;;;2.80;;
13443;SDS011;6794;59.218;18.218;2023-07-02T05:25:09;3.90;;;3.00;;
13443;SDS011;6794;59.218;18.218;2023-07-02T05:27:35;3.07;;;2.70;;
13443;SDS011;6794;59.218;18.218;2023-07-02T05:30:01;3.43;;;2.90;;
13443;SDS011;6794;59.218;18.218;2023-07-02T05:32:27;3.40;;;3.07;;
13443;SDS011;6794;59.218;18.218;2023-07-02T05:34:53;3.37;;;3.07;;
13443;SDS011;6794;59.218;18.218;2023-07-02T05:37:20;3.47;;;3.17;;
13443;SDS011;6794;59.218;18.218;2023-07-02T05:39:46;3.87;;;3.10;;
13443;SDS011;6794;59.218;18.218;2023-07-02T05:42:13;4.37;;;3.10;;
13443;SDS011;6794;59.218;18.218;2023-07-02T05:44:39;3.50;;;3.20;;
13443;SDS011;6794;59.218;18.218;2023-07-02T05:47:05;3.10;;;2.80;;
13443;SDS011;6794;59.218;18.218;2023-07-02T05:49:31;3.27;;;2.50;;
13443;SDS011;6794;59.218;18.218;2023-07-02T05:51:57;2.77;;;2.57;;
13443;SDS011;6794;59.218;18.218;2023-07-02T05:54:23;3.80;;;2.70;;
13443;SDS011;6794;59.218;18.218;2023-07-02T05:56:49;3.17;;;2.87;;
13443;SDS011;6794;59.218;18.218;2023-07-02T05:59:16;4.00;;;2.93;;
13443;SDS011;6794;59.218;18.218;2023-07-02T06:01:43;2.93;;;2.73;;
13443;SDS011;6794;59.218;18.218;2023-07-02T06:04:09;2.70;;;2.50;;
13443;SDS011;6794;59.218;18.218;2023-07-02T06:06:35;2.87;;;2.67;;
13443;SDS011;6794;59.218;18.218;2023-07-02T06:09:01;2.73;;;2.53;;
13443;SDS011;6794;59.218;18.218;2023-07-02T06:11:28;3.30;;;3.00;;
13443;SDS011;6794;59.218;18.218;2023-07-02T06:13:54;3.20;;;2.90;;
13443;SDS011;6794;59.218;18.218;2023-07-02T06:16:20;3.20;;;2.90;;
13443;SDS011;6794;59.218;18.218;2023-07-02T06:18:46;2.87;;;2.60;;
13443;SDS011;6794;59.218;18.218;2023-07-02T06:21:12;2.90;;;2.60;;
13443;SDS011;6794;59.218;18.218;2023-07-02T06:23:42;3.57;;;2.83;;
13443;SDS011;6794;59.218;18.218;2023-07-02T06:26:08;3.07;;;2.87;;
13443;SDS011;6794;59.218;18.218;2023-07-02T06:28:34;2.80;;;2.60;;
13443;SDS011;6794;59.218;18.218;2023-07-02T06:31:00;3.03;;;2.73;;
13443;SDS011;6794;59.218;18.218;2023-07-02T06:33:26;3.07;;;2.83;;
13443;SDS011;6794;59.218;18.218;2023-07-02T06:35:52;3.47;;;3.00;;
13443;SDS011;6794;59.218;18.218;2023-07-02T06:38:18;2.80;;;2.60;;
13443;SDS011;6794;59.218;18.218;2023-07-02T06:40:44;3.20;;;2.90;;
13443;SDS011;6794;59.218;18.218;2023-07-02T06:43:10;3.33;;;3.03;;
13443;SDS011;6794;59.218;18.218;2023-07-02T06:45:36;3.13;;;2.83;;
13443;SDS011;6794;59.218;18.218;2023-07-02T06:48:02;3.60;;;2.50;;
13443;SDS011;6794;59.218;18.218;2023-07-02T06:50:28;3.07;;;2.77;;
13443;SDS011;6794;59.218;18.218;2023-07-02T06:52:54;2.50;;;2.30;;
13443;SDS011;6794;59.218;18.218;2023-07-02T06:55:20;3.40;;;2.50;;
13443;SDS011;6794;59.218;18.218;2023-07-02T06:57:48;2.80;;;2.60;;
13443;SDS011;6794;59.218;18.218;2023-07-02T07:00:15;3.77;;;3.13;;
13443;SDS011;6794;59.218;18.218;2023-07-02T07:02:41;4.73;;;2.50;;
13443;SDS011;6794;59.218;18.218;2023-07-02T07:05:07;2.63;;;2.43;;
13443;SDS011;6794;59.218;18.218;2023-07-02T07:07:34;3.00;;;2.20;;
13443;SDS011;6794;59.218;18.218;2023-07-02T07:10:00;2.20;;;2.07;;
13443;SDS011;6794;59.218;18.218;2023-07-02T07:12:26;3.30;;;2.60;;
13443;SDS011;6794;59.218;18.218;2023-07-02T07:14:52;2.33;;;2.13;;
13443;SDS011;6794;59.218;18.218;2023-07-02T07:17:18;2.67;;;2.47;;
13443;SDS011;6794;59.218;18.218;2023-07-02T07:19:44;3.03;;;2.40;;
13443;SDS011;6794;59.218;18.218;2023-07-02T07:22:10;2.73;;;2.30;;
13443;SDS011;6794;59.218;18.218;2023-07-02T07:24:37;2.37;;;2.17;;
13443;SDS011;6794;59.218;18.218;2023-07-02T07:27:03;2.57;;;2.37;;
13443;SDS011;6794;59.218;18.218;2023-07-02T07:29:29;3.23;;;2.93;;
13443;SDS011;6794;59.218;18.218;2023-07-02T07:31:55;3.27;;;2.40;;
13443;SDS011;6794;59.218;18.218;2023-07-02T07:34:21;3.77;;;3.00;;
13443;SDS011;6794;59.218;18.218;2023-07-02T07:36:47;2.67;;;2.27;;
13443;SDS011;6794;59.218;18.218;2023-07-02T07:39:13;2.80;;;2.30;;
13443;SDS011;6794;59.218;18.218;2023-07-02T07:41:39;2.40;;;2.17;;
13443;SDS011;6794;59.218;18.218;2023-07-02T07:44:05;2.13;;;2.03;;
13443;SDS011;6794;59.218;18.218;2023-07-02T07:46:31;2.60;;;2.20;;
13443;SDS011;6794;59.218;18.218;2023-07-02T07:48:57;2.77;;;2.57;;
13443;SDS011;6794;59.218;18.218;2023-07-02T07:51:23;3.97;;;2.50;;
13443;SDS011;6794;59.218;18.218;2023-07-02T07:53:49;2.70;;;2.23;;
13443;SDS011;6794;59.218;18.218;2023-07-02T07:56:15;2.90;;;2.70;;
13443;SDS011;6794;59.218;18.218;2023-07-02T07:58:41;2.80;;;2.60;;
13443;SDS011;6794;59.218;18.218;2023-07-02T08:01:07;3.37;;;3.07;;
13443;SDS011;6794;59.218;18.218;2023-07-02T08:03:33;2.90;;;2.70;;
13443;SDS011;6794;59.218;18.218;2023-07-02T08:05:59;3.47;;;3.17;;
13443;SDS011;6794;59.218;18.218;2023-07-02T08:08:25;3.00;;;2.70;;
13443;SDS011;6794;59.218;18.218;2023-07-02T08:10:51;3.30;;;3.10;;
13443;SDS011;6794;59.218;18.218;2023-07-02T08:13:17;3.47;;;3.17;;
13443;SDS011;6794;59.218;18.218;2023-07-02T08:15:43;3.57;;;3.10;;
13443;SDS011;6794;59.218;18.218;2023-07-02T08:18:09;2.93;;;2.73;;
13443;SDS011;6794;59.218;18.218;2023-07-02T08:20:37;4.00;;;2.97;;
13443;SDS011;6794;59.218;18.218;2023-07-02T08:23:03;3.30;;;3.00;;
13443;SDS011;6794;59.218;18.218;2023-07-02T08:25:29;3.10;;;2.90;;
13443;SDS011;6794;59.218;18.218;2023-07-02T08:27:55;2.87;;;2.57;;
13443;SDS011;6794;59.218;18.218;2023-07-02T08:30:22;3.40;;;3.10;;
13443;SDS011;6794;59.218;18.218;2023-07-02T08:32:48;3.23;;;2.93;;
13443;SDS011;6794;59.218;18.218;2023-07-02T08:35:14;3.10;;;2.90;;
13443;SDS011;6794;59.218;18.218;2023-07-02T08:37:40;3.00;;;2.80;;
13443;SDS011;6794;59.218;18.218;2023-07-02T08:40:06;2.87;;;2.67;;
13443;SDS011;6794;59.218;18.218;2023-07-02T08:42:40;3.17;;;2.83;;
13443;SDS011;6794;59.218;18.218;2023-07-02T08:45:07;2.60;;;2.40;;
13443;SDS011;6794;59.218;18.218;2023-07-02T08:47:33;2.90;;;2.70;;
13443;SDS011;6794;59.218;18.218;2023-07-02T08:49:59;2.73;;;2.53;;
13443;SDS011;6794;59.218;18.218;2023-07-02T08:52:25;2.87;;;2.67;;
13443;SDS011;6794;59.218;18.218;2023-07-02T08:54:51;3.07;;;2.77;;
13443;SDS011;6794;59.218;18.218;2023-07-02T08:57:18;3.40;;;2.93;;
13443;SDS011;6794;59.218;18.218;2023-07-02T08:59:46;3.57;;;3.00;;
13443;SDS011;6794;59.218;18.218;2023-07-02T09:02:14;3.10;;;2.80;;
13443;SDS011;6794;59.218;18.218;2023-07-02T09:04:40;3.03;;;2.77;;
13443;SDS011;6794;59.218;18.218;2023-07-02T09:07:07;2.80;;;2.60;;
13443;SDS011;6794;59.218;18.218;2023-07-02T09:09:54;2.70;;;2.47;;
13443;SDS011;6794;59.218;18.218;2023-07-02T09:12:27;2.60;;;2.40;;
13443;SDS011;6794;59.218;18.218;2023-07-02T09:17:26;2.57;;;2.37;;
13443;SDS011;6794;59.218;18.218;2023-07-02T09:19:52;2.83;;;2.63;;
13443;SDS011;6794;59.218;18.218;2023-07-02T09:22:18;3.10;;;2.90;;
13443;SDS011;6794;59.218;18.218;2023-07-02T09:25:03;3.93;;;2.97;;
13443;SDS011;6794;59.218;18.218;2023-07-02T09:27:32;3.20;;;2.93;;
13443;SDS011;6794;59.218;18.218;2023-07-02T09:30:05;3.47;;;3.10;;
13443;SDS011;6794;59.218;18.218;2023-07-02T09:32:31;2.93;;;2.73;;
13443;SDS011;6794;59.218;18.218;2023-07-02T09:34:57;3.10;;;2.90;;
13443;SDS011;6794;59.218;18.218;2023-07-02T09:37:24;4.70;;;3.53;;
13443;SDS011;6794;59.218;18.218;2023-07-02T09:39:50;3.33;;;3.13;;
13443;SDS011;6794;59.218;18.218;2023-07-02T09:42:17;3.47;;;3.17;;
13443;SDS011;6794;59.218;18.218;2023-07-02T09:44:45;3.47;;;3.10;;
13443;SDS011;6794;59.218;18.218;2023-07-02T09:47:12;3.63;;;3.30;;
13443;SDS011;6794;59.218;18.218;2023-07-02T09:49:39;3.90;;;3.60;;
13443;SDS011;6794;59.218;18.218;2023-07-02T09:52:07;3.40;;;3.10;;
13443;SDS011;6794;59.218;18.218;2023-07-02T09:54:33;4.07;;;3.47;;
13443;SDS011;6794;59.218;18.218;2023-07-02T09:57:00;3.27;;;3.00;;
13443;SDS011;6794;59.218;18.218;2023-07-02T09:59:26;3.83;;;3.53;;
13443;SDS011;6794;59.218;18.218;2023-07-02T10:01:52;3.70;;;3.30;;
13443;SDS011;6794;59.218;18.218;2023-07-02T10:04:19;3.63;;;3.43;;
13443;SDS011;6794;59.218;18.218;2023-07-02T10:06:46;3.73;;;3.43;;
13443;SDS011;6794;59.218;18.218;2023-07-02T10:09:12;3.40;;;3.10;;
13443;SDS011;6794;59.218;18.218;2023-07-02T10:11:38;3.30;;;2.87;;
13443;SDS011;6794;59.218;18.218;2023-07-02T10:14:04;3.83;;;3.53;;
13443;SDS011;6794;59.218;18.218;2023-07-02T10:16:30;3.10;;;2.90;;
13443;SDS011;6794;59.218;18.218;2023-07-02T10:19:09;3.63;;;3.33;;
13443;SDS011;6794;59.218;18.218;2023-07-02T10:21:35;3.27;;;3.03;;
13443;SDS011;6794;59.218;18.218;2023-07-02T10:26:37;3.13;;;2.80;;
13443;SDS011;6794;59.218;18.218;2023-07-02T10:29:03;3.50;;;3.20;;
13443;SDS011;6794;59.218;18.218;2023-07-02T10:31:29;3.33;;;3.03;;
13443;SDS011;6794;59.218;18.218;2023-07-02T10:33:55;3.37;;;3.10;;
13443;SDS011;6794;59.218;18.218;2023-07-02T10:36:22;3.60;;;3.30;;
13443;SDS011;6794;59.218;18.218;2023-07-02T10:38:48;3.60;;;3.30;;
13443;SDS011;6794;59.218;18.218;2023-07-02T10:41:28;3.17;;;2.93;;
13443;SDS011;6794;59.218;18.218;2023-07-02T10:43:54;5.00;;;3.63;;
13443;SDS011;6794;59.218;18.218;2023-07-02T10:46:31;3.80;;;3.30;;
13443;SDS011;6794;59.218;18.218;2023-07-02T10:48:57;4.37;;;3.97;;
13443;SDS011;6794;59.218;18.218;2023-07-02T10:51:23;3.60;;;3.30;;
13443;SDS011;6794;59.218;18.218;2023-07-02T10:54:01;3.27;;;3.07;;
13443;SDS011;6794;59.218;18.218;2023-07-02T10:56:29;6.17;;;3.30;;
13443;SDS011;6794;59.218;18.218;2023-07-02T10:58:55;3.27;;;2.97;;
13443;SDS011;6794;59.218;18.218;2023-07-02T11:01:25;3.60;;;3.20;;
13443;SDS011;6794;59.218;18.218;2023-07-02T11:06:24;3.10;;;2.90;;
13443;SDS011;6794;59.218;18.218;2023-07-02T11:08:50;3.50;;;2.90;;
13443;SDS011;6794;59.218;18.218;2023-07-02T11:11:16;3.17;;;2.97;;
13443;SDS011;6794;59.218;18.218;2023-07-02T11:13:46;3.60;;;2.83;;
13443;SDS011;6794;59.218;18.218;2023-07-02T11:16:19;3.10;;;2.90;;
13443;SDS011;6794;59.218;18.218;2023-07-02T11:18:45;3.00;;;2.80;;
13443;SDS011;6794;59.218;18.218;2023-07-02T11:21:11;3.50;;;3.20;;
13443;SDS011;6794;59.218;18.218;2023-07-02T11:23:37;3.90;;;3.20;;
13443;SDS011;6794;59.218;18.218;2023-07-02T11:26:03;3.10;;;2.80;;
13443;SDS011;6794;59.218;18.218;2023-07-02T11:28:30;2.70;;;2.50;;
13443;SDS011;6794;59.218;18.218;2023-07-02T11:30:57;2.13;;;2.03;;
13443;SDS011;6794;59.218;18.218;2023-07-02T11:33:33;2.53;;;1.97;;
13443;SDS011;6794;59.218;18.218;2023-07-02T11:35:59;2.33;;;1.70;;
13443;SDS011;6794;59.218;18.218;2023-07-02T11:38:26;1.70;;;1.60;;
13443;SDS011;6794;59.218;18.218;2023-07-02T11:40:52;1.63;;;1.53;;
13443;SDS011;6794;59.218;18.218;2023-07-02T11:43:18;1.40;;;1.30;;
13443;SDS011;6794;59.218;18.218;2023-07-02T11:45:44;1.70;;;1.53;;
13443;SDS011;6794;59.218;18.218;2023-07-02T11:48:10;1.60;;;1.50;;
13443;SDS011;6794;59.218;18.218;2023-07-02T11:50:36;1.33;;;1.23;;
13443;SDS011;6794;59.218;18.218;2023-07-02T11:53:02;1.43;;;1.33;;
13443;SDS011;6794;59.218;18.218;2023-07-02T11:55:28;1.80;;;1.37;;
13443;SDS011;6794;59.218;18.218;2023-07-02T11:57:54;1.50;;;1.40;;
13443;SDS011;6794;59.218;18.218;2023-07-02T12:00:20;1.97;;;1.70;;
13443;SDS011;6794;59.218;18.218;2023-07-02T12:02:46;1.30;;;1.20;;
13443;SDS011;6794;59.218;18.218;2023-07-02T12:05:12;1.50;;;1.40;;
13443;SDS011;6794;59.218;18.218;2023-07-02T12:07:38;1.30;;;1.20;;
13443;SDS011;6794;59.218;18.218;2023-07-02T12:10:05;1.53;;;1.40;;
13443;SDS011;6794;59.218;18.218;2023-07-02T12:12:31;2.03;;;1.37;;
13443;SDS011;6794;59.218;18.218;2023-07-02T12:14:57;1.50;;;1.40;;
13443;SDS011;6794;59.218;18.218;2023-07-02T12:17:23;1.53;;;1.43;;
13443;SDS011;6794;59.218;18.218;2023-07-02T12:19:49;1.50;;;1.40;;
13443;SDS011;6794;59.218;18.218;2023-07-02T12:22:15;1.10;;;1.10;;
13443;SDS011;6794;59.218;18.218;2023-07-02T12:24:42;1.17;;;1.10;;
13443;SDS011;6794;59.218;18.218;2023-07-02T12:27:09;0.83;;;0.83;;
13443;SDS011;6794;59.218;18.218;2023-07-02T12:29:35;0.97;;;0.97;;
13443;SDS011;6794;59.218;18.218;2023-07-02T12:32:02;0.93;;;0.93;;
13443;SDS011;6794;59.218;18.218;2023-07-02T12:34:28;0.97;;;0.90;;
13443;SDS011;6794;59.218;18.218;2023-07-02T12:36:54;1.50;;;1.20;;
13443;SDS011;6794;59.218;18.218;2023-07-02T12:39:20;1.20;;;1.10;;
13443;SDS011;6794;59.218;18.218;2023-07-02T12:41:46;1.30;;;1.20;;
13443;SDS011;6794;59.218;18.218;2023-07-02T12:44:12;1.63;;;1.33;;
13443;SDS011;6794;59.218;18.218;2023-07-02T12:46:38;1.30;;;1.10;;
13443;SDS011;6794;59.218;18.218;2023-07-02T12:49:04;1.60;;;1.50;;
13443;SDS011;6794;59.218;18.218;2023-07-02T12:51:30;1.43;;;1.33;;
13443;SDS011;6794;59.218;18.218;2023-07-02T12:53:56;1.30;;;1.20;;
13443;SDS011;6794;59.218;18.218;2023-07-02T12:56:23;1.23;;;1.13;;
13443;SDS011;6794;59.218;18.218;2023-07-02T12:58:49;1.30;;;1.20;;
13443;SDS011;6794;59.218;18.218;2023-07-02T13:01:16;1.60;;;1.50;;
13443;SDS011;6794;59.218;18.218;2023-07-02T13:03:45;1.60;;;1.50;;
13443;SDS011;6794;59.218;18.218;2023-07-02T13:06:12;1.80;;;1.40;;
13443;SDS011;6794;59.218;18.218;2023-07-02T13:08:38;1.20;;;1.10;;
13443;SDS011;6794;59.218;18.218;2023-07-02T13:11:04;2.47;;;1.20;;
13443;SDS011;6794;59.218;18.218;2023-07-02T13:13:30;1.00;;;0.90;;
13443;SDS011;6794;59.218;18.218;2023-07-02T13:15:56;1.00;;;0.90;;
13443;SDS011;6794;59.218;18.218;2023-07-02T13:18:22;1.43;;;0.80;;
13443;SDS011;6794;59.218;18.218;2023-07-02T13:20:48;0.77;;;0.77;;
13443;SDS011;6794;59.218;18.218;2023-07-02T13:23:14;1.23;;;0.90;;
13443;SDS011;6794;59.218;18.218;2023-07-02T13:25:40;1.23;;;0.80;;
13443;SDS011;6794;59.218;18.218;2023-07-02T13:28:06;1.13;;;1.07;;
13443;SDS011;6794;59.218;18.218;2023-07-02T13:30:32;2.33;;;0.80;;
13443;SDS011;6794;59.218;18.218;2023-07-02T13:32:58;0.60;;;0.60;;
13443;SDS011;6794;59.218;18.218;2023-07-02T13:35:25;0.80;;;0.80;;
13443;SDS011;6794;59.218;18.218;2023-07-02T13:37:51;1.00;;;0.80;;
13443;SDS011;6794;59.218;18.218;2023-07-02T13:40:17;0.40;;;0.40;;
13443;SDS011;6794;59.218;18.218;2023-07-02T13:42:43;0.50;;;0.50;;
13443;SDS011;6794;59.218;18.218;2023-07-02T13:45:09;0.50;;;0.50;;
13443;SDS011;6794;59.218;18.218;2023-07-02T13:47:36;0.73;;;0.73;;
13443;SDS011;6794;59.218;18.218;2023-07-02T13:50:02;0.97;;;0.60;;
13443;SDS011;6794;59.218;18.218;2023-07-02T13:52:29;0.60;;;0.60;;
13443;SDS011;6794;59.218;18.218;2023-07-02T13:54:55;0.70;;;0.70;;
13443;SDS011;6794;59.218;18.218;2023-07-02T13:57:21;0.50;;;0.50;;
13443;SDS011;6794;59.218;18.218;2023-07-02T13:59:47;0.63;;;0.63;;
13443;SDS011;6794;59.218;18.218;2023-07-02T14:02:13;0.70;;;0.70;;
13443;SDS011;6794;59.218;18.218;2023-07-02T14:04:39;0.73;;;0.73;;
13443;SDS011;6794;59.218;18.218;2023-07-02T14:07:05;0.60;;;0.60;;
13443;SDS011;6794;59.218;18.218;2023-07-02T14:09:31;1.27;;;0.57;;
13443;SDS011;6794;59.218;18.218;2023-07-02T14:11:57;2.23;;;0.90;;
13443;SDS011;6794;59.218;18.218;2023-07-02T14:14:23;0.87;;;0.80;;
13443;SDS011;6794;59.218;18.218;2023-07-02T14:16:49;0.70;;;0.70;;
13443;SDS011;6794;59.218;18.218;2023-07-02T14:19:15;0.80;;;0.80;;
13443;SDS011;6794;59.218;18.218;2023-07-02T14:21:42;1.53;;;0.80;;
13443;SDS011;6794;59.218;18.218;2023-07-02T14:24:08;0.80;;;0.80;;
13443;SDS011;6794;59.218;18.218;2023-07-02T14:26:34;0.80;;;0.80;;
13443;SDS011;6794;59.218;18.218;2023-07-02T14:29:00;1.17;;;0.77;;
13443;SDS011;6794;59.218;18.218;2023-07-02T14:31:26;0.70;;;0.70;;
13443;SDS011;6794;59.218;18.218;2023-07-02T14:33:52;1.23;;;0.90;;
13443;SDS011;6794;59.218;18.218;2023-07-02T14:36:19;2.13;;;0.70;;
13443;SDS011;6794;59.218;18.218;2023-07-02T14:38:45;1.10;;;0.90;;
13443;SDS011;6794;59.218;18.218;2023-07-02T14:41:11;1.73;;;0.80;;
13443;SDS011;6794;59.218;18.218;2023-07-02T14:43:37;0.80;;;0.80;;
13443;SDS011;6794;59.218;18.218;2023-07-02T14:46:03;0.90;;;0.90;;
13443;SDS011;6794;59.218;18.218;2023-07-02T14:48:29;1.50;;;1.10;;
13443;SDS011;6794;59.218;18.218;2023-07-02T14:50:59;2.03;;;1.10;;